Weather at Daulat Beg Oldi Advanced Landing Ground

Public forecast

Using degrees Celsius for public forecast. Weather courtesy of forecast.io.

Closest aviation weather report (METAR) to Daulat Beg Oldi Advanced Landing Ground

Closest report is Kangra Airport, 211.1 nm (390.9 km) SSW.

2022/11/27 01:00 (retrieved 37 minutes ago)

VIGG 270100Z 00000KT 6000 FEW080 08/08 Q1013

Closest aviation forecast (TAF) to Daulat Beg Oldi Advanced Landing Ground

Forecast is more than 12 hours old.

Closest forecast is Leh Kushok Bakula Rimpochee Airport, 78.0 nm (144.5 km) SSW.

2022/11/26 06:00 (retrieved 20 hours ago)

TAF VILH 260330Z 2606/2618 16005KT 6000 FEW070 BKN150